createdAt,value
2023-05-25T00:02:10.403Z,100.00
2023-05-25T00:06:12.333Z,100.00
2023-05-25T00:10:13.875Z,100.00
2023-05-25T00:14:19.012Z,100.00
2023-05-25T00:18:22.565Z,100.00
2023-05-25T00:22:24.163Z,100.00
2023-05-25T00:26:25.839Z,100.00
2023-05-25T00:30:27.269Z,100.00
2023-05-25T00:34:28.750Z,100.00
2023-05-25T00:38:30.294Z,100.00
2023-05-25T00:42:32.488Z,100.00
2023-05-25T00:46:47.141Z,100.00
2023-05-25T00:50:48.865Z,100.00
2023-05-25T00:55:01.123Z,100.00
2023-05-25T00:59:06.279Z,100.00
2023-05-25T01:03:17.753Z,100.00
2023-05-25T01:07:25.761Z,100.00
2023-05-25T01:11:33.651Z,100.00
2023-05-25T01:15:37.236Z,100.00
2023-05-25T01:19:41.054Z,100.00
2023-05-25T01:24:17.426Z,100.00
2023-05-25T01:28:25.398Z,100.00
2023-05-25T01:32:28.899Z,100.00
2023-05-25T01:36:30.776Z,100.00
2023-05-25T01:40:32.632Z,100.00
2023-05-25T01:44:34.861Z,100.00
2023-05-25T01:48:53.270Z,100.00
2023-05-25T01:53:06.405Z,100.00
2023-05-25T01:57:12.659Z,100.00
2023-05-25T02:01:17.105Z,100.00
2023-05-25T02:05:20.627Z,100.00
2023-05-25T02:09:22.165Z,100.00
2023-05-25T02:13:23.687Z,100.00
2023-05-25T02:17:27.949Z,100.00
2023-05-25T02:21:29.498Z,100.00
2023-05-25T02:25:31.080Z,100.00
2023-05-25T02:29:32.711Z,100.00
2023-05-25T02:33:34.141Z,100.00
2023-05-25T02:37:35.653Z,100.00
2023-05-25T02:41:37.939Z,100.00
2023-05-25T02:45:39.410Z,100.00
2023-05-25T02:49:40.979Z,100.00
2023-05-25T02:53:42.444Z,100.00
2023-05-25T02:57:44.112Z,100.00
2023-05-25T03:01:45.699Z,100.00
2023-05-25T03:05:47.352Z,100.00
2023-05-25T03:09:48.879Z,100.00
2023-05-25T03:13:51.702Z,100.00
2023-05-25T03:17:53.896Z,100.00
2023-05-25T03:21:55.424Z,100.00
2023-05-25T03:25:58.016Z,100.00
2023-05-25T03:29:59.631Z,100.00
2023-05-25T03:34:01.211Z,100.00
2023-05-25T03:38:02.750Z,100.00
2023-05-25T03:42:04.558Z,100.00
2023-05-25T03:46:06.193Z,100.00
2023-05-25T03:50:08.291Z,100.00
2023-05-25T03:54:09.886Z,100.00
2023-05-25T03:58:11.380Z,100.00
2023-05-25T04:02:12.946Z,100.00
2023-05-25T04:06:19.201Z,100.00
2023-05-25T04:10:20.797Z,100.00
2023-05-25T04:14:22.280Z,100.00
2023-05-25T04:18:23.802Z,100.00
2023-05-25T04:22:25.344Z,100.00
2023-05-25T04:26:27.491Z,100.00
2023-05-25T04:30:28.990Z,100.00
2023-05-25T04:34:30.491Z,100.00
2023-05-25T04:38:33.202Z,100.00
2023-05-25T04:42:34.670Z,100.00
2023-05-25T04:46:39.088Z,100.00
2023-05-25T04:50:40.701Z,100.00
2023-05-25T04:54:43.521Z,100.00
2023-05-25T04:58:45.003Z,100.00
2023-05-25T05:02:46.649Z,100.00
2023-05-25T05:06:48.578Z,100.00
2023-05-25T05:10:50.161Z,100.00
2023-05-25T05:14:51.672Z,100.00
2023-05-25T05:18:53.177Z,100.00
2023-05-25T05:22:54.733Z,100.00
2023-05-25T05:26:58.923Z,100.00
2023-05-25T05:31:00.786Z,100.00
2023-05-25T05:35:02.358Z,100.00
2023-05-25T05:39:04.089Z,100.00
2023-05-25T05:43:06.968Z,100.00
2023-05-25T05:47:08.548Z,100.00
2023-05-25T05:51:10.091Z,100.00
2023-05-25T05:55:11.662Z,100.00
2023-05-25T05:59:13.148Z,100.00
2023-05-25T06:03:14.647Z,100.00
2023-05-25T06:07:16.156Z,100.00
2023-05-25T06:11:17.666Z,100.00
2023-05-25T06:15:19.135Z,100.00
2023-05-25T06:19:20.641Z,100.00
2023-05-25T06:23:22.111Z,100.00
2023-05-25T06:27:23.574Z,100.00
2023-05-25T06:31:25.139Z,100.00
2023-05-25T06:35:26.656Z,100.00
2023-05-25T06:39:28.165Z,100.00
2023-05-25T06:43:29.837Z,100.00
2023-05-25T06:47:31.453Z,100.00
2023-05-25T06:51:33.314Z,100.00
2023-05-25T06:55:34.796Z,100.00
2023-05-25T06:59:36.415Z,100.00
2023-05-25T07:03:38.657Z,100.00
2023-05-25T07:07:40.233Z,100.00
2023-05-25T07:11:41.746Z,100.00
2023-05-25T07:15:43.568Z,100.00
2023-05-25T07:19:45.406Z,100.00
2023-05-25T07:23:46.917Z,100.00
2023-05-25T07:27:54.996Z,100.00
2023-05-25T07:31:56.583Z,100.00
2023-05-25T07:35:58.126Z,100.00
2023-05-25T07:40:00.098Z,100.00
2023-05-25T07:44:01.572Z,100.00
2023-05-25T07:48:03.105Z,100.00
2023-05-25T07:52:06.027Z,98.93
2023-05-25T07:56:10.454Z,98.42
2023-05-25T08:00:12.696Z,94.11
2023-05-25T08:04:14.329Z,94.55
2023-05-25T08:08:16.070Z,92.20
2023-05-25T08:16:22.045Z,88.59
2023-05-25T08:20:24.904Z,89.96
2023-05-25T08:24:26.456Z,91.30
2023-05-25T08:28:27.947Z,89.03
2023-05-25T08:32:29.423Z,88.34
2023-05-25T08:36:33.998Z,83.38
2023-05-25T08:40:35.743Z,84.61
2023-05-25T08:44:38.236Z,85.94
2023-05-25T08:48:42.433Z,89.25
2023-05-25T08:52:46.789Z,89.59
2023-05-25T08:56:55.100Z,87.76
2023-05-25T09:01:00.876Z,81.61
2023-05-25T09:05:02.614Z,83.08
2023-05-25T09:09:05.400Z,85.61
2023-05-25T09:13:20.517Z,87.17
2023-05-25T09:17:23.272Z,90.41
2023-05-25T09:21:26.477Z,92.02
2023-05-25T09:25:29.024Z,83.87
2023-05-25T09:29:32.210Z,80.06
2023-05-25T09:33:36.809Z,77.91
2023-05-25T09:37:39.294Z,75.84
2023-05-25T09:41:41.569Z,74.22
2023-05-25T09:45:43.204Z,69.81
2023-05-25T09:49:47.598Z,63.55
2023-05-25T09:53:49.319Z,65.68
2023-05-25T09:57:54.983Z,68.16
2023-05-25T10:01:56.815Z,72.40
2023-05-25T10:05:58.418Z,75.34
2023-05-25T10:10:06.338Z,71.75
2023-05-25T10:14:08.459Z,73.98
2023-05-25T10:18:13.543Z,73.57
2023-05-25T10:22:31.850Z,67.24
2023-05-25T10:26:37.015Z,69.06
2023-05-25T10:30:39.125Z,64.18
2023-05-25T10:34:41.824Z,65.76
2023-05-25T10:38:44.716Z,61.22
2023-05-25T10:42:46.451Z,59.56
2023-05-25T10:46:49.563Z,56.15
2023-05-25T10:50:51.626Z,54.18
2023-05-25T10:54:56.862Z,56.38
2023-05-25T10:58:58.640Z,53.76
2023-05-25T11:03:00.172Z,55.82
2023-05-25T11:07:01.769Z,50.22
2023-05-25T11:11:03.295Z,51.15
2023-05-25T11:15:18.182Z,55.02
2023-05-25T11:23:57.160Z,51.18
2023-05-25T11:28:04.572Z,49.51
2023-05-25T11:32:13.216Z,52.15
2023-05-25T11:36:20.456Z,51.70
2023-05-25T11:40:25.143Z,55.87
2023-05-25T11:44:33.394Z,53.70
2023-05-25T11:48:36.537Z,54.08
2023-05-25T11:52:38.021Z,49.85
2023-05-25T11:56:39.639Z,51.98
2023-05-25T12:00:41.401Z,49.89
2023-05-25T12:04:59.154Z,52.21
2023-05-25T12:09:08.208Z,51.53
2023-05-25T12:13:11.349Z,51.26
2023-05-25T12:17:13.163Z,54.50
2023-05-25T12:21:15.017Z,56.77
2023-05-25T12:25:21.261Z,56.21
2023-05-25T12:29:23.605Z,52.49
2023-05-25T12:33:25.144Z,51.58
2023-05-25T12:37:26.701Z,54.53
2023-05-25T12:41:28.216Z,60.69
2023-05-25T12:45:29.787Z,62.34
2023-05-25T12:49:34.790Z,60.06
2023-05-25T12:53:57.534Z,65.14
2023-05-25T12:58:01.520Z,64.58
2023-05-25T13:02:06.248Z,67.70
2023-05-25T13:06:08.035Z,64.84
2023-05-25T13:10:11.983Z,64.88
2023-05-25T13:14:13.482Z,68.87
2023-05-25T13:18:14.949Z,68.11
2023-05-25T13:22:16.434Z,63.63
2023-05-25T13:26:19.516Z,58.54
2023-05-25T13:30:22.029Z,56.59
2023-05-25T13:34:23.628Z,58.09
2023-05-25T13:38:25.193Z,50.41
2023-05-25T13:42:26.749Z,45.61
2023-05-25T13:46:34.627Z,53.72
2023-05-25T13:50:36.858Z,55.89
2023-05-25T13:54:38.392Z,60.15
2023-05-25T13:58:39.923Z,62.17
2023-05-25T14:02:41.599Z,62.72
2023-05-25T14:06:43.566Z,63.36
2023-05-25T14:10:45.605Z,55.48
2023-05-25T14:14:47.444Z,52.99
2023-05-25T14:18:49.028Z,53.75
2023-05-25T14:22:50.868Z,60.59
2023-05-25T14:26:52.328Z,62.27
2023-05-25T14:30:53.814Z,65.58
2023-05-25T14:34:55.336Z,59.56
2023-05-25T14:38:56.818Z,53.76
2023-05-25T14:42:58.301Z,49.40
2023-05-25T14:46:59.790Z,46.24
2023-05-25T14:51:02.766Z,52.25
2023-05-25T14:55:04.556Z,53.48
2023-05-25T14:59:06.097Z,54.83
2023-05-25T15:03:07.796Z,51.57
2023-05-25T15:07:11.525Z,46.72
2023-05-25T15:11:14.348Z,47.57
2023-05-25T15:15:17.110Z,51.35
2023-05-25T15:19:18.598Z,51.31
2023-05-25T15:23:20.173Z,51.31
2023-05-25T15:27:21.722Z,53.30
2023-05-25T15:31:23.940Z,50.18
2023-05-25T15:35:30.971Z,51.37
2023-05-25T15:39:32.649Z,53.71
2023-05-25T15:43:34.142Z,52.06
2023-05-25T15:47:35.715Z,47.84
2023-05-25T15:51:39.705Z,51.36
2023-05-25T15:55:41.144Z,48.84
2023-05-25T15:59:42.611Z,46.20
2023-05-25T16:03:44.878Z,45.14
2023-05-25T16:07:46.614Z,44.33
2023-05-25T16:11:48.101Z,44.51
2023-05-25T16:15:49.651Z,45.08
2023-05-25T16:19:51.182Z,45.45
2023-05-25T16:23:52.739Z,48.22
2023-05-25T16:27:54.283Z,48.64
2023-05-25T16:31:56.593Z,47.79
2023-05-25T16:35:58.316Z,45.12
2023-05-25T16:39:59.829Z,47.15
2023-05-25T16:44:01.492Z,49.44
2023-05-25T16:48:03.423Z,46.96
2023-05-25T16:52:05.179Z,44.89
2023-05-25T16:56:06.861Z,44.75
2023-05-25T17:00:09.236Z,46.28
2023-05-25T17:04:10.901Z,44.72
2023-05-25T17:08:12.410Z,47.15
2023-05-25T17:12:13.876Z,49.08
2023-05-25T17:16:15.522Z,50.31
2023-05-25T17:20:17.406Z,52.08
2023-05-25T17:24:18.931Z,50.35
2023-05-25T17:28:20.564Z,50.84
2023-05-25T17:32:22.077Z,53.27
2023-05-25T17:36:23.800Z,54.79
2023-05-25T17:40:25.312Z,53.62
2023-05-25T17:44:26.959Z,57.78
2023-05-25T17:48:28.549Z,61.12
2023-05-25T17:52:31.422Z,65.47
2023-05-25T17:56:32.904Z,67.96
2023-05-25T18:00:34.398Z,69.46
2023-05-25T18:04:36.030Z,69.28
2023-05-25T18:08:37.544Z,69.72
2023-05-25T18:12:39.092Z,70.31
2023-05-25T18:16:42.292Z,71.93
2023-05-25T18:20:43.994Z,72.02
2023-05-25T18:24:45.484Z,73.30
2023-05-25T18:28:46.971Z,73.02
2023-05-25T18:32:48.477Z,74.03
2023-05-25T18:36:50.048Z,77.04
2023-05-25T18:40:51.593Z,76.74
2023-05-25T18:44:53.069Z,77.86
2023-05-25T18:48:55.597Z,78.36
2023-05-25T18:52:57.921Z,79.04
2023-05-25T18:56:59.372Z,78.38
2023-05-25T19:01:00.885Z,80.72
2023-05-25T19:05:02.941Z,80.63
2023-05-25T19:09:04.523Z,82.52
2023-05-25T19:13:05.992Z,82.17
2023-05-25T19:17:07.633Z,82.17
2023-05-25T19:21:09.200Z,81.98
2023-05-25T19:25:10.811Z,83.93
2023-05-25T19:29:12.352Z,87.21
2023-05-25T19:33:13.976Z,87.65
2023-05-25T19:37:15.484Z,90.38
2023-05-25T19:41:17.036Z,89.14
2023-05-25T19:45:21.301Z,90.03
2023-05-25T19:49:22.816Z,93.07
2023-05-25T19:53:24.661Z,95.34
2023-05-25T19:57:27.303Z,97.87
2023-05-25T20:01:29.048Z,96.89
2023-05-25T20:05:30.831Z,100.00
2023-05-25T20:09:32.408Z,100.00
2023-05-25T20:13:34.028Z,100.00
2023-05-25T20:17:35.804Z,100.00
2023-05-25T20:21:37.351Z,100.00
2023-05-25T20:25:38.912Z,100.00
2023-05-25T20:29:40.410Z,100.00
2023-05-25T20:33:42.089Z,100.00
2023-05-25T20:37:43.693Z,100.00
2023-05-25T20:41:45.472Z,100.00
2023-05-25T20:45:47.293Z,100.00
2023-05-25T20:49:49.186Z,100.00
2023-05-25T20:53:50.753Z,100.00
2023-05-25T20:57:52.322Z,100.00
2023-05-25T21:01:53.917Z,100.00
2023-05-25T21:05:55.554Z,100.00
2023-05-25T21:09:59.326Z,100.00
2023-05-25T21:14:00.862Z,100.00
2023-05-25T21:18:03.613Z,100.00
2023-05-25T21:22:05.312Z,100.00
2023-05-25T21:26:06.970Z,100.00
2023-05-25T21:30:08.819Z,100.00
2023-05-25T21:34:10.298Z,100.00
2023-05-25T21:38:11.832Z,100.00
2023-05-25T21:42:13.358Z,100.00
2023-05-25T21:46:14.903Z,100.00
2023-05-25T21:50:16.513Z,100.00
2023-05-25T21:54:17.989Z,100.00
2023-05-25T21:58:19.845Z,100.00
2023-05-25T22:02:21.983Z,100.00
2023-05-25T22:06:23.597Z,100.00
2023-05-25T22:10:25.036Z,100.00
2023-05-25T22:14:26.548Z,100.00
2023-05-25T22:18:28.057Z,100.00
2023-05-25T22:22:29.549Z,100.00
2023-05-25T22:26:31.106Z,100.00
2023-05-25T22:30:32.674Z,100.00
2023-05-25T22:34:34.133Z,100.00
2023-05-25T22:38:35.601Z,100.00
2023-05-25T22:42:37.125Z,100.00
2023-05-25T22:46:38.639Z,100.00
2023-05-25T22:50:40.207Z,100.00
2023-05-25T22:54:41.716Z,100.00
2023-05-25T22:58:43.154Z,100.00
2023-05-25T23:02:44.733Z,100.00
2023-05-25T23:06:46.285Z,100.00
2023-05-25T23:10:47.745Z,100.00
2023-05-25T23:14:49.445Z,100.00
2023-05-25T23:18:51.755Z,100.00
2023-05-25T23:22:53.190Z,100.00
2023-05-25T23:26:54.634Z,100.00
2023-05-25T23:30:56.772Z,100.00
2023-05-25T23:34:58.317Z,100.00
2023-05-25T23:38:59.923Z,100.00
2023-05-25T23:43:01.451Z,100.00
2023-05-25T23:47:02.936Z,100.00
2023-05-25T23:51:07.309Z,100.00
2023-05-25T23:55:08.845Z,100.00
2023-05-25T23:59:12.099Z,100.00
